Terminal Aerodrome Forecast
Issued by NWS Charleston, WV

Current Version | Previous Version | Text Only | Print | Product List | Glossary Off
Versions: 1 2 3 4 5 6 7 8 9 10 11 12 13 14 15 16 17 18 19 20 21 22 23

000
FTUS41 KRLX 170540 AAB
TAFPKB
TAF AMD
KPKB 170540Z 1706/1806 14005KT 3SM BR OVC050
     FM170900 16005KT 3SM -SHRA BR OVC050
     FM171100 18006KT 3SM -SHRA OVC015
     FM171400 19009G15KT 5SM -SHRA BKN015
     FM172300 25008KT P6SM BKN015=

USA.gov is the U.S. government's official web portal to all federal, state and local government web resources and services.